createdAt,value
2018-06-15T00:00:50.079Z,19.50
2018-06-15T00:03:18.166Z,19.80
2018-06-15T00:05:46.557Z,20.80
2018-06-15T00:08:14.902Z,19.27
2018-06-15T00:10:43.051Z,22.67
2018-06-15T00:13:11.385Z,18.77
2018-06-15T00:15:39.713Z,19.57
2018-06-15T00:18:08.118Z,21.00
2018-06-15T00:20:36.191Z,23.27
2018-06-15T00:23:04.552Z,19.80
2018-06-15T00:25:32.648Z,25.65
2018-06-15T00:28:00.718Z,19.27
2018-06-15T00:30:28.871Z,20.60
2018-06-15T00:32:57.280Z,19.03
2018-06-15T00:35:25.353Z,18.23
2018-06-15T00:37:53.683Z,20.23
2018-06-15T00:40:22.113Z,19.87
2018-06-15T00:42:50.458Z,20.70
2018-06-15T00:45:18.800Z,19.23
2018-06-15T00:47:47.194Z,19.83
2018-06-15T00:50:15.538Z,22.70
2018-06-15T00:52:43.929Z,19.00
2018-06-15T00:55:12.292Z,20.07
2018-06-15T00:57:48.224Z,25.20
2018-06-15T01:00:16.846Z,19.07
2018-06-15T01:02:45.213Z,19.97
2018-06-15T01:05:13.538Z,18.03
2018-06-15T01:07:41.890Z,18.73
2018-06-15T01:10:10.350Z,19.43
2018-06-15T01:12:38.702Z,18.23
2018-06-15T01:15:06.999Z,20.43
2018-06-15T01:17:35.363Z,21.00
2018-06-15T01:20:03.420Z,22.53
2018-06-15T01:22:31.749Z,21.17
2018-06-15T01:25:00.163Z,22.03
2018-06-15T01:27:28.423Z,22.77
2018-06-15T01:29:56.752Z,22.57
2018-06-15T01:32:24.860Z,22.10
2018-06-15T01:34:53.202Z,22.20
2018-06-15T01:37:21.249Z,23.67
2018-06-15T01:39:49.640Z,21.07
2018-06-15T01:42:18.077Z,22.60
2018-06-15T01:44:46.394Z,37.28
2018-06-15T01:47:14.513Z,25.43
2018-06-15T01:49:42.831Z,21.97
2018-06-15T01:52:11.211Z,24.20
2018-06-15T01:54:39.604Z,35.95
2018-06-15T01:57:07.700Z,27.70
2018-06-15T01:59:35.766Z,24.90
2018-06-15T02:02:03.878Z,21.67
2018-06-15T02:04:33.070Z,30.12
2018-06-15T02:07:01.416Z,24.40
2018-06-15T02:09:29.533Z,20.53
2018-06-15T02:11:57.958Z,22.37
2018-06-15T02:14:26.018Z,18.80
2018-06-15T02:16:54.360Z,18.67
2018-06-15T02:19:22.741Z,18.83
2018-06-15T02:21:51.080Z,22.07
2018-06-15T02:24:19.181Z,20.47
2018-06-15T02:26:47.578Z,22.50
2018-06-15T02:29:15.965Z,26.15
2018-06-15T02:31:44.399Z,18.57
2018-06-15T02:34:12.712Z,18.90
2018-06-15T02:36:41.091Z,16.60
2018-06-15T02:39:10.785Z,18.97
2018-06-15T02:41:39.179Z,15.63
2018-06-15T02:44:07.817Z,18.53
2018-06-15T02:46:35.980Z,17.50
2018-06-15T02:49:04.072Z,17.23
2018-06-15T02:51:32.193Z,18.10
2018-06-15T02:54:00.572Z,15.20
2018-06-15T02:56:28.896Z,15.40
2018-06-15T02:58:57.130Z,16.53
2018-06-15T03:01:25.436Z,15.27
2018-06-15T03:03:54.031Z,14.80
2018-06-15T03:06:22.365Z,15.10
2018-06-15T03:08:50.937Z,23.35
2018-06-15T03:11:19.309Z,19.30
2018-06-15T03:13:47.625Z,17.73
2018-06-15T03:16:15.998Z,17.97
2018-06-15T03:18:46.070Z,28.30
2018-06-15T03:21:14.493Z,27.02
2018-06-15T03:23:42.882Z,16.87
2018-06-15T03:26:11.215Z,17.43
2018-06-15T03:28:41.115Z,22.58
2018-06-15T03:31:09.493Z,17.30
2018-06-15T03:33:37.816Z,14.77
2018-06-15T03:36:06.163Z,13.93
2018-06-15T03:38:34.524Z,18.70
2018-06-15T03:41:02.913Z,16.10
2018-06-15T03:43:31.291Z,14.97
2018-06-15T03:45:59.691Z,14.67
2018-06-15T03:48:28.020Z,16.30
2018-06-15T03:50:56.080Z,15.13
2018-06-15T03:53:24.505Z,14.83
2018-06-15T03:55:52.843Z,21.68
2018-06-15T03:58:21.175Z,17.40
2018-06-15T04:00:49.540Z,13.87
2018-06-15T04:03:17.850Z,10.97
2018-06-15T04:05:46.236Z,11.77
2018-06-15T04:08:14.642Z,11.73
2018-06-15T04:10:42.701Z,16.37
2018-06-15T04:13:11.128Z,15.43
2018-06-15T04:15:39.483Z,13.75
2018-06-15T04:18:08.307Z,9.97
2018-06-15T04:20:37.981Z,12.20
2018-06-15T04:23:06.082Z,11.83
2018-06-15T04:25:34.421Z,10.23
2018-06-15T04:28:02.790Z,12.10
2018-06-15T04:30:31.114Z,12.43
2018-06-15T04:32:59.203Z,12.00
2018-06-15T04:35:28.086Z,11.77
2018-06-15T04:37:56.560Z,11.70
2018-06-15T04:40:24.901Z,11.60
2018-06-15T04:42:53.287Z,11.63
2018-06-15T04:45:21.405Z,15.63
2018-06-15T04:47:49.713Z,11.30
2018-06-15T04:50:18.048Z,11.93
2018-06-15T04:52:46.437Z,12.60
2018-06-15T04:55:14.772Z,12.00
2018-06-15T04:57:42.830Z,11.20
2018-06-15T05:00:11.226Z,12.33
2018-06-15T05:02:39.344Z,17.23
2018-06-15T05:05:07.749Z,12.97
2018-06-15T05:07:36.093Z,11.13
2018-06-15T05:10:04.674Z,13.10
2018-06-15T05:12:33.064Z,12.37
2018-06-15T05:15:01.411Z,11.63
2018-06-15T05:17:29.529Z,11.33
2018-06-15T05:19:57.892Z,12.70
2018-06-15T05:22:26.299Z,13.40
2018-06-15T05:24:54.613Z,11.77
2018-06-15T05:27:22.682Z,12.30
2018-06-15T05:29:50.864Z,12.50
2018-06-15T05:32:18.896Z,13.00
2018-06-15T05:34:47.241Z,11.83
2018-06-15T05:37:15.669Z,10.90
2018-06-15T05:39:44.030Z,12.43
2018-06-15T05:42:12.435Z,12.53
2018-06-15T05:44:40.838Z,14.65
2018-06-15T05:47:08.930Z,11.60
2018-06-15T05:49:40.295Z,14.47
2018-06-15T05:52:08.692Z,12.23
2018-06-15T05:54:37.066Z,11.97
2018-06-15T05:57:05.475Z,13.60
2018-06-15T05:59:33.774Z,12.57
2018-06-15T06:02:01.938Z,10.53
2018-06-15T06:04:29.995Z,11.00
2018-06-15T06:06:58.359Z,11.27
2018-06-15T06:09:26.750Z,11.40
2018-06-15T06:11:55.110Z,12.00
2018-06-15T06:14:23.545Z,11.60
2018-06-15T06:16:52.025Z,14.53
2018-06-15T06:19:20.126Z,11.77
2018-06-15T06:21:48.503Z,11.47
2018-06-15T06:24:16.877Z,10.97
2018-06-15T06:26:45.251Z,12.50
2018-06-15T06:29:13.340Z,11.90
2018-06-15T06:31:41.723Z,12.20
2018-06-15T06:34:13.195Z,12.27
2018-06-15T06:36:41.569Z,13.03
2018-06-15T06:39:11.639Z,12.63
2018-06-15T06:41:39.881Z,12.40
2018-06-15T06:44:08.452Z,13.00
2018-06-15T06:46:36.813Z,13.23
2018-06-15T06:49:05.454Z,14.20
2018-06-15T06:51:33.533Z,14.23
2018-06-15T06:54:01.604Z,14.03
2018-06-15T06:56:29.737Z,15.57
2018-06-15T06:58:58.129Z,13.67
2018-06-15T07:01:26.537Z,13.53
2018-06-15T07:03:54.880Z,13.50
2018-06-15T07:06:23.245Z,13.70
2018-06-15T07:08:51.614Z,12.60
2018-06-15T07:11:20.016Z,12.40
2018-06-15T07:13:48.348Z,12.53
2018-06-15T07:16:16.741Z,12.47
2018-06-15T07:18:45.097Z,12.83
2018-06-15T07:21:13.461Z,11.13
2018-06-15T07:23:41.882Z,10.57
2018-06-15T07:26:10.176Z,10.43
2018-06-15T07:28:38.582Z,10.80
2018-06-15T07:31:06.939Z,10.40
2018-06-15T07:33:35.435Z,9.77
2018-06-15T07:36:03.873Z,10.13
2018-06-15T07:38:32.231Z,8.03
2018-06-15T07:41:00.557Z,9.23
2018-06-15T07:43:28.906Z,9.13
2018-06-15T07:45:57.279Z,11.15
2018-06-15T07:48:25.655Z,9.43
2018-06-15T07:50:54.021Z,9.53
2018-06-15T07:53:22.435Z,8.37
2018-06-15T07:55:50.811Z,9.23
2018-06-15T07:58:19.153Z,8.23
2018-06-15T08:00:47.246Z,7.83
2018-06-15T08:03:15.571Z,6.97
2018-06-15T08:05:43.993Z,6.67
2018-06-15T08:08:12.597Z,5.65
2018-06-15T08:10:40.894Z,4.33
2018-06-15T08:13:09.252Z,4.57
2018-06-15T08:15:37.632Z,4.77
2018-06-15T08:18:05.990Z,4.60
2018-06-15T08:20:34.352Z,4.10
2018-06-15T08:23:02.457Z,4.40
2018-06-15T08:25:30.840Z,4.03
2018-06-15T08:27:59.262Z,4.23
2018-06-15T08:30:27.626Z,4.23
2018-06-15T08:32:55.999Z,4.77
2018-06-15T08:35:24.374Z,4.00
2018-06-15T08:37:52.782Z,3.93
2018-06-15T08:40:21.166Z,3.47
2018-06-15T08:42:49.559Z,3.37
2018-06-15T08:45:17.664Z,4.50
2018-06-15T08:47:45.990Z,4.27
2018-06-15T08:50:14.337Z,3.50
2018-06-15T08:52:42.773Z,5.10
2018-06-15T08:55:10.833Z,4.50
2018-06-15T08:57:39.190Z,3.10
2018-06-15T09:00:07.610Z,4.33
2018-06-15T09:02:35.704Z,3.20
2018-06-15T09:05:04.075Z,3.60
2018-06-15T09:07:32.449Z,3.50
2018-06-15T09:10:00.794Z,3.37
2018-06-15T09:12:29.123Z,3.50
2018-06-15T09:14:57.612Z,2.60
2018-06-15T09:17:25.948Z,2.83
2018-06-15T09:19:54.020Z,3.10
2018-06-15T09:22:22.192Z,3.00
2018-06-15T09:24:50.279Z,2.83
2018-06-15T09:27:18.598Z,2.80
2018-06-15T09:29:46.952Z,2.77
2018-06-15T09:32:15.279Z,2.70
2018-06-15T09:34:43.614Z,3.23
2018-06-15T09:37:12.049Z,3.08
2018-06-15T09:39:40.451Z,3.87
2018-06-15T09:42:08.527Z,3.22
2018-06-15T09:44:36.636Z,3.62
2018-06-15T09:47:05.013Z,3.22
2018-06-15T09:49:33.339Z,3.83
2018-06-15T09:52:01.726Z,3.60
2018-06-15T09:54:29.808Z,4.22
2018-06-15T09:56:58.188Z,4.35
2018-06-15T09:59:26.606Z,4.45
2018-06-15T10:01:54.956Z,4.03
2018-06-15T10:04:23.325Z,3.92
2018-06-15T10:06:51.703Z,3.70
2018-06-15T10:09:19.808Z,3.65
2018-06-15T10:11:48.162Z,3.52
2018-06-15T10:14:16.571Z,3.40
2018-06-15T10:16:44.922Z,3.42
2018-06-15T10:19:12.961Z,3.30
2018-06-15T10:21:41.095Z,5.12
2018-06-15T10:24:09.429Z,3.83
2018-06-15T10:26:37.487Z,3.65
2018-06-15T10:29:05.638Z,3.20
2018-06-15T10:31:33.995Z,3.08
2018-06-15T10:34:02.347Z,3.58
2018-06-15T10:36:30.804Z,3.45
2018-06-15T10:38:58.898Z,3.50
2018-06-15T10:41:27.239Z,3.77
2018-06-15T10:43:55.801Z,3.27
2018-06-15T10:46:24.126Z,3.25
2018-06-15T10:48:52.187Z,3.45
2018-06-15T10:51:20.233Z,3.83
2018-06-15T10:53:48.589Z,3.00
2018-06-15T10:56:16.943Z,2.90
2018-06-15T10:58:45.278Z,3.12
2018-06-15T11:01:13.621Z,3.05
2018-06-15T11:03:41.972Z,2.67
2018-06-15T11:06:10.381Z,2.87
2018-06-15T11:08:38.898Z,2.40
2018-06-15T11:11:07.173Z,3.10
2018-06-15T11:13:35.563Z,2.70
2018-06-15T11:16:03.653Z,3.67
2018-06-15T11:18:31.740Z,3.22
2018-06-15T11:21:00.133Z,3.05
2018-06-15T11:23:28.460Z,2.77
2018-06-15T11:25:56.792Z,2.72
2018-06-15T11:28:25.194Z,2.55
2018-06-15T11:30:53.622Z,2.72
2018-06-15T11:33:21.871Z,3.10
2018-06-15T11:35:50.262Z,2.75
2018-06-15T11:38:18.622Z,3.40
2018-06-15T11:40:46.980Z,3.52
2018-06-15T11:43:15.382Z,3.08
2018-06-15T11:45:43.715Z,3.00
2018-06-15T11:48:12.091Z,3.00
2018-06-15T11:50:40.485Z,3.02
2018-06-15T11:53:08.856Z,3.00
2018-06-15T11:55:37.249Z,2.67
2018-06-15T11:58:05.648Z,3.60
2018-06-15T12:00:33.977Z,3.00
2018-06-15T12:03:02.316Z,3.50
2018-06-15T12:05:31.871Z,2.60
2018-06-15T12:08:00.206Z,3.15
2018-06-15T12:10:28.590Z,2.98
2018-06-15T12:12:56.722Z,3.47
2018-06-15T12:15:25.113Z,2.75
2018-06-15T12:17:53.464Z,3.00
2018-06-15T12:20:21.860Z,5.73
2018-06-15T12:22:50.238Z,2.87
2018-06-15T12:25:18.586Z,3.30
2018-06-15T12:27:47.006Z,3.05
2018-06-15T12:30:15.411Z,4.30
2018-06-15T12:32:43.827Z,3.45
2018-06-15T12:35:12.187Z,3.47
2018-06-15T12:37:40.356Z,4.10
2018-06-15T12:40:08.432Z,3.17
2018-06-15T12:42:36.559Z,3.62
2018-06-15T12:45:04.927Z,3.35
2018-06-15T12:47:33.305Z,3.70
2018-06-15T12:50:12.347Z,3.85
2018-06-15T12:52:40.727Z,3.62
2018-06-15T12:55:09.063Z,4.45
2018-06-15T12:57:37.301Z,4.12
2018-06-15T13:00:05.663Z,4.10
2018-06-15T13:02:34.017Z,3.80
2018-06-15T13:05:02.555Z,4.40
2018-06-15T13:07:30.889Z,4.62
2018-06-15T13:09:59.924Z,4.30
2018-06-15T13:12:28.658Z,4.50
2018-06-15T13:14:57.003Z,4.10
2018-06-15T13:17:25.092Z,3.70
2018-06-15T13:19:53.227Z,4.08
2018-06-15T13:22:21.618Z,4.65
2018-06-15T13:24:49.948Z,4.75
2018-06-15T13:27:18.357Z,5.05
2018-06-15T13:29:46.728Z,4.12
2018-06-15T13:32:15.076Z,3.60
2018-06-15T13:34:43.453Z,3.50
2018-06-15T13:37:11.836Z,4.33
2018-06-15T13:39:40.255Z,2.87
2018-06-15T13:42:08.267Z,3.87
2018-06-15T13:44:36.602Z,3.67
2018-06-15T13:47:05.005Z,3.85
2018-06-15T13:49:33.424Z,4.20
2018-06-15T13:52:01.787Z,3.87
2018-06-15T13:54:29.886Z,4.12
2018-06-15T13:56:58.471Z,4.25
2018-06-15T13:59:26.888Z,4.20
2018-06-15T14:01:55.280Z,3.58
2018-06-15T14:04:23.404Z,4.35
2018-06-15T14:06:51.816Z,4.42
2018-06-15T14:09:22.958Z,4.05
2018-06-15T14:11:51.377Z,3.83
2018-06-15T14:14:19.408Z,3.67
2018-06-15T14:16:47.774Z,3.52
2018-06-15T14:19:16.205Z,3.33
2018-06-15T14:21:44.294Z,6.78
2018-06-15T14:24:12.681Z,3.45
2018-06-15T14:26:41.024Z,3.00
2018-06-15T14:29:09.389Z,2.85
2018-06-15T14:31:37.743Z,3.02
2018-06-15T14:34:06.139Z,2.87
2018-06-15T14:36:34.494Z,3.30
2018-06-15T14:39:02.962Z,3.40
2018-06-15T14:41:31.364Z,3.33
2018-06-15T14:43:59.721Z,3.62
2018-06-15T14:46:28.067Z,3.05
2018-06-15T14:48:56.428Z,5.85
2018-06-15T14:51:24.914Z,9.20
2018-06-15T14:53:52.993Z,3.15
2018-06-15T14:56:21.162Z,4.35
2018-06-15T14:58:49.548Z,3.55
2018-06-15T15:01:17.750Z,3.08
2018-06-15T15:03:45.996Z,2.95
2018-06-15T15:06:15.045Z,2.95
2018-06-15T15:08:44.283Z,3.58
2018-06-15T15:11:13.187Z,3.15
2018-06-15T15:13:41.797Z,3.35
2018-06-15T15:16:10.521Z,3.35
2018-06-15T15:18:39.453Z,3.08
2018-06-15T15:21:08.388Z,2.85
2018-06-15T15:23:37.924Z,3.55
2018-06-15T15:26:06.838Z,3.45
2018-06-15T15:28:36.041Z,2.87
2018-06-15T15:31:04.577Z,3.00
2018-06-15T15:33:33.018Z,3.50
2018-06-15T15:36:01.963Z,3.70
2018-06-15T15:38:31.172Z,2.87
2018-06-15T15:41:00.048Z,3.22
2018-06-15T15:43:28.847Z,10.08
2018-06-15T15:45:57.874Z,4.50
2018-06-15T15:48:26.849Z,4.92
2018-06-15T15:50:56.042Z,3.42
2018-06-15T15:53:25.293Z,3.52
2018-06-15T15:55:54.072Z,2.90
2018-06-15T15:58:24.012Z,2.90
2018-06-15T16:00:52.799Z,2.95
2018-06-15T16:03:21.483Z,3.55
2018-06-15T16:05:49.991Z,3.25
2018-06-15T16:08:18.365Z,3.17
2018-06-15T16:10:46.870Z,3.20
2018-06-15T16:13:15.984Z,3.40
2018-06-15T16:15:44.750Z,3.35
2018-06-15T16:18:13.102Z,3.10
2018-06-15T16:20:43.852Z,3.33
2018-06-15T16:23:12.784Z,3.60
2018-06-15T16:25:41.433Z,3.37
2018-06-15T16:28:09.890Z,3.45
2018-06-15T16:30:38.273Z,2.90
2018-06-15T16:33:06.714Z,3.53
2018-06-15T16:35:40.457Z,3.75
2018-06-15T16:38:10.684Z,3.47
2018-06-15T16:40:39.327Z,3.22
2018-06-15T16:43:08.180Z,3.20
2018-06-15T16:45:37.231Z,3.42
2018-06-15T16:48:08.979Z,3.17
2018-06-15T16:50:38.406Z,3.15
2018-06-15T16:53:07.251Z,3.70
2018-06-15T16:55:35.976Z,3.40
2018-06-15T16:58:04.385Z,3.30
2018-06-15T17:00:32.836Z,3.15
2018-06-15T17:03:01.492Z,2.80
2018-06-15T17:05:29.830Z,3.12
2018-06-15T17:07:58.306Z,3.00
2018-06-15T17:10:26.405Z,3.27
2018-06-15T17:12:55.046Z,3.22
2018-06-15T17:15:23.197Z,2.80
2018-06-15T17:17:52.272Z,3.17
2018-06-15T17:20:20.691Z,3.67
2018-06-15T17:22:52.210Z,2.98
2018-06-15T17:25:21.393Z,3.55
2018-06-15T17:27:49.761Z,3.45
2018-06-15T17:30:18.259Z,3.35
2018-06-15T17:32:47.172Z,3.17
2018-06-15T17:35:16.116Z,2.65
2018-06-15T17:37:44.374Z,3.12
2018-06-15T17:40:12.979Z,2.65
2018-06-15T17:42:41.194Z,3.17
2018-06-15T17:45:09.877Z,3.25
2018-06-15T17:47:38.422Z,2.87
2018-06-15T17:50:06.528Z,2.98
2018-06-15T17:52:35.106Z,3.42
2018-06-15T17:55:04.141Z,3.50
2018-06-15T17:57:32.630Z,3.25
2018-06-15T18:00:01.565Z,3.10
2018-06-15T18:02:29.688Z,3.22
2018-06-15T18:04:58.116Z,3.10
2018-06-15T18:07:26.229Z,3.10
2018-06-15T18:09:54.632Z,2.80
2018-06-15T18:12:23.008Z,3.33
2018-06-15T18:14:51.384Z,2.70
2018-06-15T18:17:19.888Z,2.45
2018-06-15T18:19:48.354Z,2.62
2018-06-15T18:22:16.762Z,2.80
2018-06-15T18:24:45.121Z,2.22
2018-06-15T18:27:13.478Z,3.15
2018-06-15T18:29:41.981Z,2.75
2018-06-15T18:32:10.249Z,2.40
2018-06-15T18:34:38.668Z,3.50
2018-06-15T18:37:07.040Z,3.00
2018-06-15T18:39:35.453Z,2.83
2018-06-15T18:42:03.833Z,3.40
2018-06-15T18:44:32.240Z,3.00
2018-06-15T18:47:00.658Z,3.62
2018-06-15T18:49:29.080Z,3.00
2018-06-15T18:51:57.422Z,3.08
2018-06-15T18:54:25.567Z,3.00
2018-06-15T18:56:53.963Z,3.30
2018-06-15T18:59:22.343Z,2.95
2018-06-15T19:01:50.846Z,2.87
2018-06-15T19:04:20.314Z,2.72
2018-06-15T19:06:49.277Z,3.37
2018-06-15T19:09:17.695Z,2.70
2018-06-15T19:11:46.057Z,3.17
2018-06-15T19:14:14.463Z,3.00
2018-06-15T19:16:42.906Z,2.55
2018-06-15T19:19:11.246Z,2.87
2018-06-15T19:21:39.375Z,2.25
2018-06-15T19:24:07.795Z,3.05
2018-06-15T19:26:35.919Z,3.27
2018-06-15T19:29:04.393Z,3.50
2018-06-15T19:31:32.724Z,3.27
2018-06-15T19:34:01.396Z,3.62
2018-06-15T19:36:29.797Z,3.67
2018-06-15T19:38:57.909Z,3.42
2018-06-15T19:41:26.315Z,3.98
2018-06-15T19:43:54.717Z,3.35
2018-06-15T19:46:22.839Z,3.00
2018-06-15T19:48:51.245Z,3.30
2018-06-15T19:51:19.695Z,2.75
2018-06-15T19:53:49.403Z,3.20
2018-06-15T19:56:17.780Z,3.33
2018-06-15T19:58:46.183Z,3.15
2018-06-15T20:01:14.601Z,3.40
2018-06-15T20:03:42.693Z,3.15
2018-06-15T20:06:11.099Z,3.17
2018-06-15T20:08:39.521Z,3.30
2018-06-15T20:11:07.907Z,3.15
2018-06-15T20:13:36.256Z,3.15
2018-06-15T20:16:04.716Z,3.37
2018-06-15T20:18:33.061Z,3.42
2018-06-15T20:21:01.197Z,3.58
2018-06-15T20:23:29.589Z,3.33
2018-06-15T20:25:57.962Z,3.05
2018-06-15T20:28:26.319Z,3.50
2018-06-15T20:30:54.734Z,3.77
2018-06-15T20:33:23.067Z,4.28
2018-06-15T20:35:51.431Z,3.90
2018-06-15T20:38:19.853Z,3.22
2018-06-15T20:40:48.243Z,3.58
2018-06-15T20:43:16.630Z,3.47
2018-06-15T20:45:45.036Z,3.65
2018-06-15T20:48:13.131Z,4.10
2018-06-15T20:50:41.565Z,3.47
2018-06-15T20:53:10.001Z,3.77
2018-06-15T20:55:38.310Z,3.98
2018-06-15T20:58:06.684Z,4.47
2018-06-15T21:00:35.125Z,8.68
2018-06-15T21:03:03.505Z,3.95
2018-06-15T21:05:31.870Z,3.87
2018-06-15T21:08:00.272Z,4.20
2018-06-15T21:10:28.648Z,4.03
2018-06-15T21:12:57.010Z,3.30
2018-06-15T21:15:25.128Z,3.05
2018-06-15T21:17:53.508Z,3.20
2018-06-15T21:20:21.850Z,3.98
2018-06-15T21:22:50.254Z,4.10
2018-06-15T21:25:18.895Z,3.80
2018-06-15T21:27:46.971Z,3.87
2018-06-15T21:30:15.098Z,3.90
2018-06-15T21:32:43.476Z,3.77
2018-06-15T21:35:11.843Z,3.62
2018-06-15T21:37:40.435Z,4.17
2018-06-15T21:40:08.805Z,4.33
2018-06-15T21:42:37.278Z,3.75
2018-06-15T21:45:05.716Z,3.52
2018-06-15T21:47:34.138Z,4.05
2018-06-15T21:50:02.502Z,3.65
2018-06-15T21:52:30.901Z,4.17
2018-06-15T21:54:59.294Z,4.40
2018-06-15T21:57:27.682Z,3.85
2018-06-15T21:59:56.148Z,4.70
2018-06-15T22:02:24.495Z,4.65
2018-06-15T22:04:52.629Z,4.22
2018-06-15T22:07:21.004Z,5.20
2018-06-15T22:09:49.441Z,4.22
2018-06-15T22:12:17.812Z,4.30
2018-06-15T22:14:46.235Z,4.33
2018-06-15T22:17:14.598Z,4.33
2018-06-15T22:19:43.010Z,4.45
2018-06-15T22:22:11.457Z,4.20
2018-06-15T22:24:39.802Z,5.12
2018-06-15T22:27:08.151Z,4.77
2018-06-15T22:29:36.557Z,4.20
2018-06-15T22:32:04.632Z,4.05
2018-06-15T22:34:32.687Z,4.42
2018-06-15T22:37:00.826Z,4.20
2018-06-15T22:39:29.246Z,4.75
2018-06-15T22:41:57.558Z,4.37
2018-06-15T22:44:25.926Z,5.00
2018-06-15T22:46:54.223Z,4.95
2018-06-15T22:49:22.593Z,4.70
2018-06-15T22:51:50.999Z,4.70
2018-06-15T22:54:19.341Z,3.87
2018-06-15T22:56:47.702Z,4.33
2018-06-15T22:59:15.867Z,4.63
2018-06-15T23:01:44.217Z,4.77
2018-06-15T23:04:12.626Z,5.87
2018-06-15T23:06:40.768Z,5.10
2018-06-15T23:09:10.628Z,4.73
2018-06-15T23:11:39.346Z,4.13
2018-06-15T23:14:07.753Z,4.65
2018-06-15T23:16:36.111Z,4.45
2018-06-15T23:19:04.462Z,5.20
2018-06-15T23:21:32.871Z,4.77
2018-06-15T23:24:01.236Z,5.58
2018-06-15T23:26:29.673Z,5.03
2018-06-15T23:28:58.079Z,5.20
2018-06-15T23:31:26.468Z,4.77
2018-06-15T23:33:54.861Z,5.03
2018-06-15T23:36:23.277Z,4.73
2018-06-15T23:38:51.651Z,5.03
2018-06-15T23:41:19.996Z,4.77
2018-06-15T23:43:48.389Z,5.53
2018-06-15T23:46:16.738Z,4.73
2018-06-15T23:48:45.092Z,4.50
2018-06-15T23:51:13.452Z,4.83
2018-06-15T23:53:41.812Z,5.53
2018-06-15T23:56:11.365Z,4.37
2018-06-15T23:58:39.714Z,4.67
